sensor_id;sensor_type;location;lat;lon;timestamp;P1;durP1;ratioP1;P2;durP2;ratioP2
67051;SDS011;53957;47.222;18.670;2022-08-11T00:01:46;3.58;;;1.75;;
67051;SDS011;53957;47.222;18.670;2022-08-11T00:04:51;1.98;;;1.87;;
67051;SDS011;53957;47.222;18.670;2022-08-11T00:07:57;1.77;;;1.60;;
67051;SDS011;53957;47.222;18.670;2022-08-11T00:11:02;1.37;;;1.35;;
67051;SDS011;53957;47.222;18.670;2022-08-11T00:14:23;4.15;;;2.35;;
67051;SDS011;53957;47.222;18.670;2022-08-11T00:17:39;1.75;;;1.65;;
67051;SDS011;53957;47.222;18.670;2022-08-11T00:20:43;1.55;;;1.45;;
67051;SDS011;53957;47.222;18.670;2022-08-11T00:23:53;1.67;;;1.58;;
67051;SDS011;53957;47.222;18.670;2022-08-11T00:26:58;1.70;;;1.60;;
67051;SDS011;53957;47.222;18.670;2022-08-11T00:30:03;1.62;;;1.52;;
67051;SDS011;53957;47.222;18.670;2022-08-11T00:33:07;5.60;;;1.80;;
67051;SDS011;53957;47.222;18.670;2022-08-11T00:36:14;2.53;;;1.50;;
67051;SDS011;53957;47.222;18.670;2022-08-11T00:39:23;1.67;;;1.58;;
67051;SDS011;53957;47.222;18.670;2022-08-11T00:45:55;1.58;;;1.48;;
67051;SDS011;53957;47.222;18.670;2022-08-11T00:52:59;2.00;;;1.90;;
67051;SDS011;53957;47.222;18.670;2022-08-11T00:56:28;5.40;;;2.08;;
67051;SDS011;53957;47.222;18.670;2022-08-11T01:00:31;2.03;;;1.80;;
67051;SDS011;53957;47.222;18.670;2022-08-11T01:34:58;5.65;;;1.58;;
67051;SDS011;53957;47.222;18.670;2022-08-11T01:49:43;1.80;;;1.70;;
67051;SDS011;53957;47.222;18.670;2022-08-11T02:00:07;1.83;;;1.70;;
67051;SDS011;53957;47.222;18.670;2022-08-11T02:03:34;1.95;;;1.85;;
67051;SDS011;53957;47.222;18.670;2022-08-11T02:21:03;2.22;;;2.12;;
67051;SDS011;53957;47.222;18.670;2022-08-11T02:24:34;3.10;;;2.47;;
67051;SDS011;53957;47.222;18.670;2022-08-11T02:27:54;2.23;;;2.13;;
67051;SDS011;53957;47.222;18.670;2022-08-11T02:31:12;2.35;;;1.73;;
67051;SDS011;53957;47.222;18.670;2022-08-11T02:35:02;2.15;;;1.98;;
67051;SDS011;53957;47.222;18.670;2022-08-11T02:41:43;2.08;;;1.90;;
67051;SDS011;53957;47.222;18.670;2022-08-11T02:52:39;2.40;;;2.20;;
67051;SDS011;53957;47.222;18.670;2022-08-11T02:56:01;2.62;;;2.00;;
67051;SDS011;53957;47.222;18.670;2022-08-11T02:59:06;1.85;;;1.75;;
67051;SDS011;53957;47.222;18.670;2022-08-11T03:02:57;1.90;;;1.80;;
67051;SDS011;53957;47.222;18.670;2022-08-11T03:06:34;2.22;;;1.58;;
67051;SDS011;53957;47.222;18.670;2022-08-11T03:09:57;2.20;;;2.00;;
67051;SDS011;53957;47.222;18.670;2022-08-11T03:13:15;4.07;;;2.05;;
67051;SDS011;53957;47.222;18.670;2022-08-11T03:16:45;2.00;;;1.85;;
67051;SDS011;53957;47.222;18.670;2022-08-11T03:30:13;1.80;;;1.62;;
67051;SDS011;53957;47.222;18.670;2022-08-11T03:33:18;4.18;;;1.90;;
67051;SDS011;53957;47.222;18.670;2022-08-11T03:40:32;4.62;;;2.55;;
67051;SDS011;53957;47.222;18.670;2022-08-11T03:47:35;2.87;;;1.87;;
67051;SDS011;53957;47.222;18.670;2022-08-11T04:41:50;4.40;;;1.75;;
67051;SDS011;53957;47.222;18.670;2022-08-11T04:49:37;2.55;;;1.40;;
67051;SDS011;53957;47.222;18.670;2022-08-11T04:56:36;1.50;;;1.45;;
67051;SDS011;53957;47.222;18.670;2022-08-11T05:00:09;2.85;;;1.80;;
67051;SDS011;53957;47.222;18.670;2022-08-11T05:03:45;6.00;;;1.60;;
67051;SDS011;53957;47.222;18.670;2022-08-11T05:13:31;1.52;;;1.42;;
67051;SDS011;53957;47.222;18.670;2022-08-11T05:16:55;1.80;;;1.35;;
67051;SDS011;53957;47.222;18.670;2022-08-11T05:20:21;4.22;;;1.37;;
67051;SDS011;53957;47.222;18.670;2022-08-11T05:23:46;1.70;;;1.50;;
67051;SDS011;53957;47.222;18.670;2022-08-11T05:27:14;2.55;;;1.50;;
67051;SDS011;53957;47.222;18.670;2022-08-11T05:30:36;2.37;;;1.45;;
67051;SDS011;53957;47.222;18.670;2022-08-11T05:34:15;1.73;;;1.40;;
67051;SDS011;53957;47.222;18.670;2022-08-11T05:37:43;1.58;;;1.10;;
67051;SDS011;53957;47.222;18.670;2022-08-11T05:41:06;1.12;;;1.12;;
67051;SDS011;53957;47.222;18.670;2022-08-11T05:44:31;2.05;;;1.25;;
67051;SDS011;53957;47.222;18.670;2022-08-11T05:47:57;1.52;;;1.30;;
67051;SDS011;53957;47.222;18.670;2022-08-11T05:51:20;2.70;;;1.85;;
67051;SDS011;53957;47.222;18.670;2022-08-11T05:54:59;1.45;;;1.35;;
67051;SDS011;53957;47.222;18.670;2022-08-11T05:58:24;2.47;;;1.60;;
67051;SDS011;53957;47.222;18.670;2022-08-11T06:01:29;1.45;;;1.35;;
67051;SDS011;53957;47.222;18.670;2022-08-11T06:04:35;1.70;;;1.20;;
67051;SDS011;53957;47.222;18.670;2022-08-11T06:07:39;3.22;;;1.30;;
67051;SDS011;53957;47.222;18.670;2022-08-11T06:10:51;1.30;;;1.20;;
67051;SDS011;53957;47.222;18.670;2022-08-11T06:13:54;2.72;;;1.15;;
67051;SDS011;53957;47.222;18.670;2022-08-11T06:16:59;1.10;;;1.10;;
67051;SDS011;53957;47.222;18.670;2022-08-11T06:20:05;1.42;;;1.15;;
67051;SDS011;53957;47.222;18.670;2022-08-11T06:23:15;1.33;;;1.00;;
67051;SDS011;53957;47.222;18.670;2022-08-11T06:26:20;1.10;;;1.00;;
67051;SDS011;53957;47.222;18.670;2022-08-11T06:29:24;1.00;;;1.00;;
67051;SDS011;53957;47.222;18.670;2022-08-11T06:32:50;1.30;;;1.20;;
67051;SDS011;53957;47.222;18.670;2022-08-11T06:42:57;1.98;;;1.20;;
67051;SDS011;53957;47.222;18.670;2022-08-11T06:46:24;0.93;;;0.93;;
67051;SDS011;53957;47.222;18.670;2022-08-11T06:49:31;1.60;;;1.20;;
67051;SDS011;53957;47.222;18.670;2022-08-11T06:52:56;0.88;;;0.88;;
67051;SDS011;53957;47.222;18.670;2022-08-11T06:56:00;2.42;;;1.37;;
67051;SDS011;53957;47.222;18.670;2022-08-11T06:59:22;1.02;;;1.02;;
67051;SDS011;53957;47.222;18.670;2022-08-11T07:02:48;1.33;;;1.23;;
67051;SDS011;53957;47.222;18.670;2022-08-11T07:06:04;1.35;;;1.00;;
67051;SDS011;53957;47.222;18.670;2022-08-11T07:13:58;0.95;;;0.95;;
67051;SDS011;53957;47.222;18.670;2022-08-11T07:17:23;1.35;;;1.20;;
67051;SDS011;53957;47.222;18.670;2022-08-11T07:20:27;0.90;;;0.90;;
67051;SDS011;53957;47.222;18.670;2022-08-11T07:23:51;0.90;;;0.90;;
67051;SDS011;53957;47.222;18.670;2022-08-11T07:27:17;1.95;;;1.00;;
67051;SDS011;53957;47.222;18.670;2022-08-11T07:30:40;4.22;;;0.90;;
67051;SDS011;53957;47.222;18.670;2022-08-11T07:33:45;1.05;;;1.00;;
67051;SDS011;53957;47.222;18.670;2022-08-11T07:37:12;0.82;;;0.82;;
67051;SDS011;53957;47.222;18.670;2022-08-11T07:40:23;1.35;;;0.80;;
67051;SDS011;53957;47.222;18.670;2022-08-11T07:43:26;0.90;;;0.90;;
67051;SDS011;53957;47.222;18.670;2022-08-11T07:46:31;3.40;;;1.10;;
67051;SDS011;53957;47.222;18.670;2022-08-11T07:49:53;0.80;;;0.80;;
67051;SDS011;53957;47.222;18.670;2022-08-11T07:53:15;7.65;;;1.17;;
67051;SDS011;53957;47.222;18.670;2022-08-11T07:56:20;0.88;;;0.85;;
67051;SDS011;53957;47.222;18.670;2022-08-11T07:59:43;1.23;;;0.73;;
67051;SDS011;53957;47.222;18.670;2022-08-11T08:03:12;0.80;;;0.80;;
67051;SDS011;53957;47.222;18.670;2022-08-11T08:06:34;2.83;;;0.98;;
67051;SDS011;53957;47.222;18.670;2022-08-11T08:09:57;1.30;;;0.90;;
67051;SDS011;53957;47.222;18.670;2022-08-11T08:13:19;1.30;;;1.20;;
67051;SDS011;53957;47.222;18.670;2022-08-11T08:16:40;2.00;;;0.98;;
67051;SDS011;53957;47.222;18.670;2022-08-11T08:20:03;1.27;;;1.17;;
67051;SDS011;53957;47.222;18.670;2022-08-11T08:23:09;1.40;;;0.98;;
67051;SDS011;53957;47.222;18.670;2022-08-11T08:26:13;0.90;;;0.90;;
67051;SDS011;53957;47.222;18.670;2022-08-11T08:29:36;1.30;;;0.98;;
67051;SDS011;53957;47.222;18.670;2022-08-11T08:32:58;3.28;;;1.00;;
67051;SDS011;53957;47.222;18.670;2022-08-11T08:36:03;1.25;;;1.00;;
67051;SDS011;53957;47.222;18.670;2022-08-11T08:39:14;2.62;;;1.00;;
67051;SDS011;53957;47.222;18.670;2022-08-11T08:42:24;0.93;;;0.90;;
67051;SDS011;53957;47.222;18.670;2022-08-11T08:45:31;1.75;;;0.90;;
67051;SDS011;53957;47.222;18.670;2022-08-11T08:48:39;2.03;;;1.37;;
67051;SDS011;53957;47.222;18.670;2022-08-11T08:51:46;2.60;;;0.95;;
67051;SDS011;53957;47.222;18.670;2022-08-11T08:55:17;0.80;;;0.80;;
67051;SDS011;53957;47.222;18.670;2022-08-11T08:58:21;0.77;;;0.77;;
67051;SDS011;53957;47.222;18.670;2022-08-11T09:01:26;2.12;;;1.12;;
67051;SDS011;53957;47.222;18.670;2022-08-11T09:04:35;3.67;;;0.80;;
67051;SDS011;53957;47.222;18.670;2022-08-11T09:07:38;1.45;;;1.00;;
67051;SDS011;53957;47.222;18.670;2022-08-11T09:10:47;4.12;;;1.12;;
67051;SDS011;53957;47.222;18.670;2022-08-11T09:14:25;0.82;;;0.77;;
67051;SDS011;53957;47.222;18.670;2022-08-11T09:17:53;0.80;;;0.80;;
67051;SDS011;53957;47.222;18.670;2022-08-11T09:21:05;1.10;;;1.00;;
67051;SDS011;53957;47.222;18.670;2022-08-11T09:24:09;1.25;;;1.00;;
67051;SDS011;53957;47.222;18.670;2022-08-11T09:27:31;0.82;;;0.82;;
67051;SDS011;53957;47.222;18.670;2022-08-11T09:30:36;1.05;;;0.77;;
67051;SDS011;53957;47.222;18.670;2022-08-11T09:33:42;1.00;;;0.90;;
67051;SDS011;53957;47.222;18.670;2022-08-11T09:36:46;2.00;;;1.08;;
67051;SDS011;53957;47.222;18.670;2022-08-11T09:40:08;1.20;;;1.10;;
67051;SDS011;53957;47.222;18.670;2022-08-11T09:43:32;1.90;;;1.10;;
67051;SDS011;53957;47.222;18.670;2022-08-11T09:47:05;1.12;;;0.93;;
67051;SDS011;53957;47.222;18.670;2022-08-11T09:50:15;2.03;;;0.80;;
67051;SDS011;53957;47.222;18.670;2022-08-11T09:53:19;1.05;;;0.80;;
67051;SDS011;53957;47.222;18.670;2022-08-11T09:56:42;1.20;;;1.10;;
67051;SDS011;53957;47.222;18.670;2022-08-11T10:00:07;1.45;;;1.05;;
67051;SDS011;53957;47.222;18.670;2022-08-11T10:03:22;3.35;;;1.10;;
67051;SDS011;53957;47.222;18.670;2022-08-11T10:06:27;1.12;;;0.98;;
67051;SDS011;53957;47.222;18.670;2022-08-11T10:09:57;5.40;;;1.10;;
67051;SDS011;53957;47.222;18.670;2022-08-11T10:13:07;1.20;;;1.10;;
67051;SDS011;53957;47.222;18.670;2022-08-11T10:19:37;3.03;;;1.23;;
67051;SDS011;53957;47.222;18.670;2022-08-11T10:22:41;0.90;;;0.90;;
67051;SDS011;53957;47.222;18.670;2022-08-11T10:26:03;1.33;;;0.80;;
67051;SDS011;53957;47.222;18.670;2022-08-11T10:29:35;3.00;;;0.95;;
67051;SDS011;53957;47.222;18.670;2022-08-11T10:33:01;2.47;;;0.80;;
67051;SDS011;53957;47.222;18.670;2022-08-11T10:36:39;4.50;;;1.55;;
67051;SDS011;53957;47.222;18.670;2022-08-11T10:39:51;0.80;;;0.80;;
67051;SDS011;53957;47.222;18.670;2022-08-11T10:42:58;10.18;;;1.20;;
67051;SDS011;53957;47.222;18.670;2022-08-11T10:46:08;0.95;;;0.70;;
67051;SDS011;53957;47.222;18.670;2022-08-11T10:49:32;3.60;;;0.90;;
67051;SDS011;53957;47.222;18.670;2022-08-11T10:52:35;4.60;;;1.00;;
67051;SDS011;53957;47.222;18.670;2022-08-11T10:55:58;1.12;;;1.02;;
67051;SDS011;53957;47.222;18.670;2022-08-11T10:59:20;1.27;;;1.17;;
67051;SDS011;53957;47.222;18.670;2022-08-11T11:02:25;4.53;;;1.00;;
67051;SDS011;53957;47.222;18.670;2022-08-11T11:05:29;1.02;;;0.80;;
67051;SDS011;53957;47.222;18.670;2022-08-11T11:08:35;0.90;;;0.90;;
67051;SDS011;53957;47.222;18.670;2022-08-11T11:12:09;2.03;;;0.98;;
67051;SDS011;53957;47.222;18.670;2022-08-11T11:15:39;1.27;;;0.90;;
67051;SDS011;53957;47.222;18.670;2022-08-11T11:19:05;1.30;;;1.10;;
67051;SDS011;53957;47.222;18.670;2022-08-11T11:22:12;1.12;;;1.02;;
67051;SDS011;53957;47.222;18.670;2022-08-11T11:35:58;1.25;;;1.00;;
67051;SDS011;53957;47.222;18.670;2022-08-11T11:39:22;1.17;;;1.08;;
67051;SDS011;53957;47.222;18.670;2022-08-11T11:42:27;0.90;;;0.90;;
67051;SDS011;53957;47.222;18.670;2022-08-11T11:45:31;3.12;;;0.90;;
67051;SDS011;53957;47.222;18.670;2022-08-11T11:48:34;1.75;;;1.05;;
67051;SDS011;53957;47.222;18.670;2022-08-11T11:51:38;0.90;;;0.90;;
67051;SDS011;53957;47.222;18.670;2022-08-11T11:54:47;0.80;;;0.80;;
67051;SDS011;53957;47.222;18.670;2022-08-11T11:57:53;1.20;;;0.80;;
67051;SDS011;53957;47.222;18.670;2022-08-11T12:01:20;1.25;;;0.95;;
67051;SDS011;53957;47.222;18.670;2022-08-11T12:04:26;6.18;;;1.00;;
67051;SDS011;53957;47.222;18.670;2022-08-11T12:07:30;0.90;;;0.90;;
67051;SDS011;53957;47.222;18.670;2022-08-11T12:11:12;0.93;;;0.90;;
67051;SDS011;53957;47.222;18.670;2022-08-11T12:14:35;1.17;;;1.05;;
67051;SDS011;53957;47.222;18.670;2022-08-11T12:17:39;0.80;;;0.70;;
67051;SDS011;53957;47.222;18.670;2022-08-11T12:20:42;0.70;;;0.70;;
67051;SDS011;53957;47.222;18.670;2022-08-11T12:23:47;1.20;;;0.85;;
67051;SDS011;53957;47.222;18.670;2022-08-11T12:27:09;0.90;;;0.90;;
67051;SDS011;53957;47.222;18.670;2022-08-11T12:30:27;3.30;;;0.90;;
67051;SDS011;53957;47.222;18.670;2022-08-11T12:33:31;3.10;;;0.80;;
67051;SDS011;53957;47.222;18.670;2022-08-11T12:36:40;1.23;;;0.80;;
67051;SDS011;53957;47.222;18.670;2022-08-11T12:40:04;1.45;;;0.70;;
67051;SDS011;53957;47.222;18.670;2022-08-11T12:43:53;0.70;;;0.70;;
67051;SDS011;53957;47.222;18.670;2022-08-11T12:47:18;5.10;;;0.80;;
67051;SDS011;53957;47.222;18.670;2022-08-11T12:50:22;0.77;;;0.77;;
67051;SDS011;53957;47.222;18.670;2022-08-11T12:53:49;0.73;;;0.73;;
67051;SDS011;53957;47.222;18.670;2022-08-11T12:56:58;0.70;;;0.70;;
67051;SDS011;53957;47.222;18.670;2022-08-11T13:00:39;3.30;;;0.95;;
67051;SDS011;53957;47.222;18.670;2022-08-11T13:04:00;0.98;;;0.88;;
67051;SDS011;53957;47.222;18.670;2022-08-11T13:07:26;0.98;;;0.85;;
67051;SDS011;53957;47.222;18.670;2022-08-11T13:10:51;2.20;;;1.00;;
67051;SDS011;53957;47.222;18.670;2022-08-11T13:14:14;1.12;;;0.80;;
67051;SDS011;53957;47.222;18.670;2022-08-11T13:17:18;3.25;;;0.77;;
67051;SDS011;53957;47.222;18.670;2022-08-11T13:20:44;0.77;;;0.70;;
67051;SDS011;53957;47.222;18.670;2022-08-11T13:23:53;0.62;;;0.62;;
67051;SDS011;53957;47.222;18.670;2022-08-11T13:27:03;2.25;;;1.10;;
67051;SDS011;53957;47.222;18.670;2022-08-11T13:30:08;0.82;;;0.82;;
67051;SDS011;53957;47.222;18.670;2022-08-11T13:33:30;0.85;;;0.80;;
67051;SDS011;53957;47.222;18.670;2022-08-11T13:36:34;0.73;;;0.70;;
67051;SDS011;53957;47.222;18.670;2022-08-11T13:39:39;1.98;;;0.80;;
67051;SDS011;53957;47.222;18.670;2022-08-11T13:42:49;0.75;;;0.75;;
67051;SDS011;53957;47.222;18.670;2022-08-11T13:45:56;1.75;;;1.05;;
67051;SDS011;53957;47.222;18.670;2022-08-11T13:49:21;0.70;;;0.70;;
67051;SDS011;53957;47.222;18.670;2022-08-11T13:52:25;1.45;;;0.85;;
67051;SDS011;53957;47.222;18.670;2022-08-11T13:55:29;0.93;;;0.93;;
67051;SDS011;53957;47.222;18.670;2022-08-11T13:58:53;0.73;;;0.73;;
67051;SDS011;53957;47.222;18.670;2022-08-11T14:02:01;0.70;;;0.70;;
67051;SDS011;53957;47.222;18.670;2022-08-11T14:08:31;1.48;;;0.98;;
67051;SDS011;53957;47.222;18.670;2022-08-11T14:11:44;0.80;;;0.80;;
67051;SDS011;53957;47.222;18.670;2022-08-11T14:15:30;0.73;;;0.73;;
67051;SDS011;53957;47.222;18.670;2022-08-11T14:18:34;4.43;;;0.80;;
67051;SDS011;53957;47.222;18.670;2022-08-11T14:21:44;0.70;;;0.70;;
67051;SDS011;53957;47.222;18.670;2022-08-11T14:25:09;0.80;;;0.80;;
67051;SDS011;53957;47.222;18.670;2022-08-11T14:28:16;2.62;;;0.80;;
67051;SDS011;53957;47.222;18.670;2022-08-11T14:31:36;1.80;;;0.90;;
67051;SDS011;53957;47.222;18.670;2022-08-11T14:34:42;1.00;;;0.65;;
67051;SDS011;53957;47.222;18.670;2022-08-11T14:37:46;0.95;;;0.77;;
67051;SDS011;53957;47.222;18.670;2022-08-11T14:40:49;2.25;;;0.90;;
67051;SDS011;53957;47.222;18.670;2022-08-11T14:44:12;0.77;;;0.77;;
67051;SDS011;53957;47.222;18.670;2022-08-11T14:47:38;3.53;;;1.17;;
67051;SDS011;53957;47.222;18.670;2022-08-11T14:50:46;0.80;;;0.80;;
67051;SDS011;53957;47.222;18.670;2022-08-11T14:53:49;1.00;;;0.93;;
67051;SDS011;53957;47.222;18.670;2022-08-11T14:57:12;2.20;;;0.80;;
67051;SDS011;53957;47.222;18.670;2022-08-11T15:00:15;0.85;;;0.80;;
67051;SDS011;53957;47.222;18.670;2022-08-11T15:03:20;0.70;;;0.70;;
67051;SDS011;53957;47.222;18.670;2022-08-11T15:06:29;3.65;;;0.80;;
67051;SDS011;53957;47.222;18.670;2022-08-11T15:09:32;2.65;;;0.90;;
67051;SDS011;53957;47.222;18.670;2022-08-11T15:12:52;2.58;;;0.77;;
67051;SDS011;53957;47.222;18.670;2022-08-11T15:15:56;0.68;;;0.68;;
67051;SDS011;53957;47.222;18.670;2022-08-11T15:19:17;0.93;;;0.93;;
67051;SDS011;53957;47.222;18.670;2022-08-11T15:22:25;1.05;;;0.80;;
67051;SDS011;53957;47.222;18.670;2022-08-11T15:25:52;1.37;;;0.90;;
67051;SDS011;53957;47.222;18.670;2022-08-11T15:29:01;1.50;;;1.27;;
67051;SDS011;53957;47.222;18.670;2022-08-11T15:32:32;2.80;;;1.05;;
67051;SDS011;53957;47.222;18.670;2022-08-11T15:36:04;2.72;;;1.50;;
67051;SDS011;53957;47.222;18.670;2022-08-11T15:39:37;1.25;;;1.12;;
67051;SDS011;53957;47.222;18.670;2022-08-11T15:43:37;1.98;;;1.27;;
67051;SDS011;53957;47.222;18.670;2022-08-11T15:47:08;2.15;;;0.93;;
67051;SDS011;53957;47.222;18.670;2022-08-11T15:50:14;2.20;;;1.05;;
67051;SDS011;53957;47.222;18.670;2022-08-11T15:53:37;1.08;;;0.93;;
67051;SDS011;53957;47.222;18.670;2022-08-11T15:56:59;1.87;;;1.70;;
67051;SDS011;53957;47.222;18.670;2022-08-11T16:00:04;2.85;;;1.40;;
67051;SDS011;53957;47.222;18.670;2022-08-11T16:03:27;2.47;;;0.90;;
67051;SDS011;53957;47.222;18.670;2022-08-11T16:07:20;1.52;;;1.00;;
67051;SDS011;53957;47.222;18.670;2022-08-11T16:10:28;2.25;;;1.30;;
67051;SDS011;53957;47.222;18.670;2022-08-11T16:13:36;1.00;;;0.93;;
67051;SDS011;53957;47.222;18.670;2022-08-11T16:16:42;1.65;;;1.30;;
67051;SDS011;53957;47.222;18.670;2022-08-11T16:19:47;1.85;;;1.52;;
67051;SDS011;53957;47.222;18.670;2022-08-11T16:22:55;1.60;;;1.20;;
67051;SDS011;53957;47.222;18.670;2022-08-11T16:26:04;1.60;;;1.27;;
67051;SDS011;53957;47.222;18.670;2022-08-11T16:29:28;0.88;;;0.88;;
67051;SDS011;53957;47.222;18.670;2022-08-11T16:32:34;0.95;;;0.90;;
67051;SDS011;53957;47.222;18.670;2022-08-11T16:35:39;1.50;;;1.40;;
67051;SDS011;53957;47.222;18.670;2022-08-11T16:39:04;3.25;;;1.02;;
67051;SDS011;53957;47.222;18.670;2022-08-11T16:42:09;1.30;;;1.20;;
67051;SDS011;53957;47.222;18.670;2022-08-11T16:45:53;1.95;;;0.88;;
67051;SDS011;53957;47.222;18.670;2022-08-11T16:49:20;2.30;;;1.20;;
67051;SDS011;53957;47.222;18.670;2022-08-11T16:52:27;1.12;;;1.12;;
67051;SDS011;53957;47.222;18.670;2022-08-11T16:55:30;0.98;;;0.98;;
67051;SDS011;53957;47.222;18.670;2022-08-11T16:58:54;1.98;;;1.05;;
67051;SDS011;53957;47.222;18.670;2022-08-11T17:02:20;4.60;;;1.10;;
67051;SDS011;53957;47.222;18.670;2022-08-11T17:06:04;1.75;;;0.98;;
67051;SDS011;53957;47.222;18.670;2022-08-11T17:09:28;1.33;;;1.12;;
67051;SDS011;53957;47.222;18.670;2022-08-11T17:12:51;1.55;;;1.30;;
67051;SDS011;53957;47.222;18.670;2022-08-11T17:16:13;2.90;;;1.10;;
67051;SDS011;53957;47.222;18.670;2022-08-11T17:19:26;3.62;;;1.00;;
67051;SDS011;53957;47.222;18.670;2022-08-11T17:22:52;9.18;;;1.52;;
67051;SDS011;53957;47.222;18.670;2022-08-11T17:26:19;2.22;;;1.15;;
67051;SDS011;53957;47.222;18.670;2022-08-11T17:29:32;1.20;;;1.10;;
67051;SDS011;53957;47.222;18.670;2022-08-11T17:32:56;1.30;;;1.20;;
67051;SDS011;53957;47.222;18.670;2022-08-11T17:36:18;1.70;;;1.05;;
67051;SDS011;53957;47.222;18.670;2022-08-11T17:39:25;1.30;;;1.20;;
67051;SDS011;53957;47.222;18.670;2022-08-11T17:42:31;3.00;;;1.77;;
67051;SDS011;53957;47.222;18.670;2022-08-11T17:45:54;1.85;;;1.25;;
67051;SDS011;53957;47.222;18.670;2022-08-11T17:49:17;1.77;;;1.15;;
67051;SDS011;53957;47.222;18.670;2022-08-11T17:52:22;1.45;;;1.27;;
67051;SDS011;53957;47.222;18.670;2022-08-11T17:55:45;2.35;;;1.37;;
67051;SDS011;53957;47.222;18.670;2022-08-11T17:59:08;3.37;;;1.20;;
67051;SDS011;53957;47.222;18.670;2022-08-11T18:02:35;2.22;;;1.75;;
67051;SDS011;53957;47.222;18.670;2022-08-11T18:06:00;2.10;;;1.23;;
67051;SDS011;53957;47.222;18.670;2022-08-11T18:09:12;5.18;;;1.30;;
67051;SDS011;53957;47.222;18.670;2022-08-11T18:12:36;1.05;;;1.02;;
67051;SDS011;53957;47.222;18.670;2022-08-11T18:15:58;1.55;;;1.30;;
67051;SDS011;53957;47.222;18.670;2022-08-11T18:19:19;1.35;;;1.17;;
67051;SDS011;53957;47.222;18.670;2022-08-11T18:22:41;1.25;;;1.15;;
67051;SDS011;53957;47.222;18.670;2022-08-11T18:26:06;1.75;;;0.90;;
67051;SDS011;53957;47.222;18.670;2022-08-11T18:29:30;0.80;;;0.80;;
67051;SDS011;53957;47.222;18.670;2022-08-11T18:32:55;0.90;;;0.70;;
67051;SDS011;53957;47.222;18.670;2022-08-11T18:36:44;2.12;;;1.02;;
67051;SDS011;53957;47.222;18.670;2022-08-11T18:40:22;1.75;;;0.80;;
67051;SDS011;53957;47.222;18.670;2022-08-11T18:43:47;2.15;;;0.93;;
67051;SDS011;53957;47.222;18.670;2022-08-11T18:47:11;6.53;;;0.93;;
67051;SDS011;53957;47.222;18.670;2022-08-11T18:50:36;3.03;;;1.62;;
67051;SDS011;53957;47.222;18.670;2022-08-11T18:54:20;0.90;;;0.90;;
67051;SDS011;53957;47.222;18.670;2022-08-11T18:57:44;1.05;;;0.90;;
67051;SDS011;53957;47.222;18.670;2022-08-11T19:01:08;3.60;;;0.88;;
67051;SDS011;53957;47.222;18.670;2022-08-11T19:04:32;1.52;;;0.80;;
67051;SDS011;53957;47.222;18.670;2022-08-11T19:07:56;0.80;;;0.80;;
67051;SDS011;53957;47.222;18.670;2022-08-11T19:11:19;0.70;;;0.70;;
67051;SDS011;53957;47.222;18.670;2022-08-11T19:14:45;1.90;;;0.90;;
67051;SDS011;53957;47.222;18.670;2022-08-11T19:18:09;3.97;;;0.90;;
67051;SDS011;53957;47.222;18.670;2022-08-11T19:21:35;0.70;;;0.70;;
67051;SDS011;53957;47.222;18.670;2022-08-11T19:24:57;0.90;;;0.90;;
67051;SDS011;53957;47.222;18.670;2022-08-11T19:28:27;2.33;;;1.08;;
67051;SDS011;53957;47.222;18.670;2022-08-11T19:31:49;2.35;;;0.90;;
67051;SDS011;53957;47.222;18.670;2022-08-11T19:35:11;6.43;;;0.90;;
67051;SDS011;53957;47.222;18.670;2022-08-11T19:38:34;0.93;;;0.93;;
67051;SDS011;53957;47.222;18.670;2022-08-11T19:41:57;1.55;;;1.08;;
67051;SDS011;53957;47.222;18.670;2022-08-11T19:45:20;0.68;;;0.68;;
67051;SDS011;53957;47.222;18.670;2022-08-11T19:48:49;0.85;;;0.80;;
67051;SDS011;53957;47.222;18.670;2022-08-11T19:52:12;0.70;;;0.70;;
67051;SDS011;53957;47.222;18.670;2022-08-11T19:55:36;0.80;;;0.80;;
67051;SDS011;53957;47.222;18.670;2022-08-11T19:58:58;3.65;;;1.00;;
67051;SDS011;53957;47.222;18.670;2022-08-11T20:02:21;1.77;;;1.10;;
67051;SDS011;53957;47.222;18.670;2022-08-11T20:05:43;1.25;;;1.15;;
67051;SDS011;53957;47.222;18.670;2022-08-11T20:09:07;0.88;;;0.88;;
67051;SDS011;53957;47.222;18.670;2022-08-11T20:12:50;0.80;;;0.80;;
67051;SDS011;53957;47.222;18.670;2022-08-11T20:16:22;1.12;;;1.00;;
67051;SDS011;53957;47.222;18.670;2022-08-11T20:19:46;0.90;;;0.90;;
67051;SDS011;53957;47.222;18.670;2022-08-11T20:23:11;1.02;;;1.00;;
67051;SDS011;53957;47.222;18.670;2022-08-11T20:26:34;3.78;;;0.90;;
67051;SDS011;53957;47.222;18.670;2022-08-11T20:29:56;1.20;;;1.10;;
67051;SDS011;53957;47.222;18.670;2022-08-11T20:33:21;1.15;;;0.88;;
67051;SDS011;53957;47.222;18.670;2022-08-11T20:36:44;1.00;;;1.00;;
67051;SDS011;53957;47.222;18.670;2022-08-11T20:40:08;0.98;;;0.90;;
67051;SDS011;53957;47.222;18.670;2022-08-11T20:43:31;1.00;;;1.00;;
67051;SDS011;53957;47.222;18.670;2022-08-11T20:47:14;1.35;;;1.20;;
67051;SDS011;53957;47.222;18.670;2022-08-11T20:50:57;0.70;;;0.70;;
67051;SDS011;53957;47.222;18.670;2022-08-11T20:54:20;0.95;;;0.95;;
67051;SDS011;53957;47.222;18.670;2022-08-11T20:57:46;0.90;;;0.82;;
67051;SDS011;53957;47.222;18.670;2022-08-11T21:01:19;0.98;;;0.98;;
67051;SDS011;53957;47.222;18.670;2022-08-11T21:04:43;2.40;;;1.00;;
67051;SDS011;53957;47.222;18.670;2022-08-11T21:08:04;0.80;;;0.80;;
67051;SDS011;53957;47.222;18.670;2022-08-11T21:11:27;1.27;;;1.10;;
67051;SDS011;53957;47.222;18.670;2022-08-11T21:14:51;4.60;;;1.00;;
67051;SDS011;53957;47.222;18.670;2022-08-11T21:18:36;1.65;;;1.00;;
67051;SDS011;53957;47.222;18.670;2022-08-11T21:22:00;1.23;;;0.93;;
67051;SDS011;53957;47.222;18.670;2022-08-11T21:25:29;1.00;;;1.00;;
67051;SDS011;53957;47.222;18.670;2022-08-11T21:28:57;2.53;;;1.12;;
67051;SDS011;53957;47.222;18.670;2022-08-11T21:32:20;1.08;;;0.93;;
67051;SDS011;53957;47.222;18.670;2022-08-11T21:35:44;1.00;;;1.00;;
67051;SDS011;53957;47.222;18.670;2022-08-11T21:39:05;3.28;;;1.30;;
67051;SDS011;53957;47.222;18.670;2022-08-11T21:42:31;1.73;;;1.23;;
67051;SDS011;53957;47.222;18.670;2022-08-11T21:45:56;1.55;;;1.45;;
67051;SDS011;53957;47.222;18.670;2022-08-11T21:49:20;1.30;;;1.20;;
67051;SDS011;53957;47.222;18.670;2022-08-11T21:52:43;1.10;;;1.10;;
67051;SDS011;53957;47.222;18.670;2022-08-11T21:56:04;0.93;;;0.93;;
67051;SDS011;53957;47.222;18.670;2022-08-11T21:59:37;1.00;;;1.00;;
67051;SDS011;53957;47.222;18.670;2022-08-11T22:03:14;1.83;;;1.05;;
67051;SDS011;53957;47.222;18.670;2022-08-11T22:06:51;1.08;;;1.08;;
67051;SDS011;53957;47.222;18.670;2022-08-11T22:10:13;1.30;;;1.20;;
67051;SDS011;53957;47.222;18.670;2022-08-11T22:13:44;1.20;;;1.10;;
67051;SDS011;53957;47.222;18.670;2022-08-11T22:17:09;7.05;;;1.33;;
67051;SDS011;53957;47.222;18.670;2022-08-11T22:20:31;1.42;;;1.20;;
67051;SDS011;53957;47.222;18.670;2022-08-11T22:23:54;1.90;;;1.20;;
67051;SDS011;53957;47.222;18.670;2022-08-11T22:27:31;1.00;;;1.00;;
67051;SDS011;53957;47.222;18.670;2022-08-11T22:30:53;1.67;;;1.20;;
67051;SDS011;53957;47.222;18.670;2022-08-11T22:34:17;3.47;;;1.27;;
67051;SDS011;53957;47.222;18.670;2022-08-11T22:37:55;1.05;;;1.05;;
67051;SDS011;53957;47.222;18.670;2022-08-11T22:41:20;1.45;;;1.10;;
67051;SDS011;53957;47.222;18.670;2022-08-11T22:44:43;1.20;;;1.10;;
67051;SDS011;53957;47.222;18.670;2022-08-11T22:48:04;2.05;;;1.00;;
67051;SDS011;53957;47.222;18.670;2022-08-11T22:51:26;0.90;;;0.90;;
67051;SDS011;53957;47.222;18.670;2022-08-11T22:54:48;0.88;;;0.88;;